Flight Track Log - Related Links

Times and Time Zones

All times are in EDT time to prevent confusion due to time zone crossing. See the AWI3704 flight status page for this flight to view local times or setup timezone preferences in your user account.

Time Position Orientation Groundspeed Altitude Reporting Facility
EDT Latitude Longitude Course Direction KTS MPH feet Rate Location/Type
Sat 11:04:06 AM 39.8667 -75.2833 37° Northeast 159 183 900  Level Philadelphia TRACON
Sat 11:04:24 AM 39.8500 -75.3000 218° Southwest 172 198 1,500 2,071 Climbing Philadelphia TRACON
Sat 11:05:30 AM 39.8000 -75.3500 218° Southwest 216 249 3,800 2,000 Climbing Philadelphia TRACON
Sat 11:06:00 AM 39.8167 -74.9130 90° East  Level FlightAware Approximate
Sat 11:06:30 AM 39.7333 -75.3833 201° Southwest 275 316 5,700  Level Philadelphia TRACON
Sat 11:07:00 AM 39.8039 -74.8026 105° East  Level FlightAware Approximate
Sat 11:07:30 AM 39.6667 -75.3333 150° Southeast 300 345 8,100  Level Philadelphia TRACON
Sat 11:08:00 AM 39.7873 -74.6961 37° Northeast  Level FlightAware Approximate
Sat 11:08:30 AM 39.6333 -75.2333 113° Southeast 312 359 9,900  Level Philadelphia TRACON
Sat 11:09:00 AM 39.8558 -74.6276 37° Northeast  Level FlightAware Approximate
Sat 11:10:38 AM 39.7039 -75.0044 68° East 374 430 12,000  Level New York Center
Sat 11:11:38 AM 39.7417 -74.8825 68° East 368 423 12,000 397 Level New York Center
Sat 11:12:39 AM 39.7817 -74.7553 68° East 368 423 12,800 807 Climbing New York Center
Sat 11:13:37 AM 39.8472 -74.6644 47° Northeast 342 394 13,600 1,271 Climbing New York Center
Sat 11:14:37 AM 39.9267 -74.5875 37° Northeast 342 394 15,300 1,537 Climbing New York Center
Sat 11:15:38 AM 40.0064 -74.5078 37° Northeast 344 396 16,700 1,339 Climbing New York Center
Sat 11:16:38 AM 40.0881 -74.4281 37° Northeast 364 419 18,000 1,190 Climbing New York Center
Sat 11:17:39 AM 40.1700 -74.3456 38° Northeast 372 428 19,100 992 Climbing New York Center
Sat 11:18:39 AM 40.2536 -74.2628 37° Northeast 372 428 20,000 1,000 Climbing New York Center
Sat 11:19:39 AM 40.3456 -74.1886 32° Northeast 378 435 21,100 938 Climbing New York Center
Sat 11:21:51 AM 40.5467 -74.0406 29° Northeast 377 434 23,000 813 Climbing Boston Center
Sat 11:22:51 AM 40.6456 -73.9772 26° Northeast 383 441 23,700 500 Climbing Boston Center
Sat 11:23:51 AM 40.7425 -73.9056 29° Northeast 388 447 24,000 150 Climbing Boston Center
Sat 11:24:51 AM 40.8331 -73.8144 37° Northeast 399 459 24,000 -250 Level Boston Center
Sat 11:25:51 AM 40.9178 -73.7172 41° Northeast 404 465 23,500 -500 Descending Boston Center
Sat 11:26:51 AM 41.0103 -73.6447 31° Northeast 399 459 23,000 -300 Descending Boston Center
Sat 11:27:51 AM 41.0964 -73.5747 31° Northeast 378 435 22,900 -850 Descending Boston Center
Sat 11:28:51 AM 41.1867 -73.4992 32° Northeast 373 429 21,300 -1,650 Descending Boston Center
Sat 11:29:51 AM 41.2747 -73.4344 29° Northeast 368 423 19,600 -1,600 Descending Boston Center
Sat 11:30:51 AM 41.3747 -73.4414 357° North 329 379 18,100 -800 Descending Boston Center
Sat 11:31:51 AM 41.4517 -73.4539 353° North 323 372 18,000 -300 Descending Boston Center
Sat 11:32:51 AM 41.5433 -73.4608 357° North 303 349 17,500 -800 Descending Boston Center
Sat 11:33:51 AM 41.6206 -73.4703 355° North 297 342 16,400 -1,200 Descending Boston Center
Sat 11:34:51 AM 41.7100 -73.4800 355° North 297 342 15,100 -1,200 Descending Boston Center
Sat 11:35:51 AM 41.7869 -73.4897 355° North 302 348 14,000 -1,182 Descending Boston Center
Sat 11:37:03 AM 41.8994 -73.5028 355° North 307 353 12,500 -1,273 Descending Boston Center
Sat 11:38:03 AM 41.9828 -73.5125 355° North 307 353 11,200 -923 Descending Boston Center
Sat 11:38:34 AM 42.0306 -73.5189 354° North 305 351 11,100 -100 Descending Boston Center
Sat 11:39:03 AM 42.0681 -73.5225 356° North 312 359 11,100  Level Boston Center
Sat 11:39:35 AM 42.1158 -73.5261 357° North 309 356 11,100  Level Boston Center
Sat 11:40:03 AM 42.1536 -73.5211 North 312 359 11,100 -247 Level Boston Center
Sat 11:40:48 AM 42.2158 -73.5475 343° North 305 351 10,800 -600 Descending Boston Center
Sat 11:41:03 AM 42.2322 -73.5617 327° Northwest 306 352 10,500 -1,180 Descending Boston Center
Sat 11:41:49 AM 42.2819 -73.5961 333° Northwest 264 304 9,600 -1,680 Descending Boston Center
Sat 11:42:43 AM 42.3400 -73.6394 331° Northwest 245 282 7,700 -1,865 Descending Boston Center
Sat 11:43:03 AM 42.3522 -73.6481 332° Northwest 256 295 7,300 -1,967 Descending Boston Center
Sat 11:43:44 AM 42.4019 -73.6828 333° Northwest 249 287 5,700 -2,200 Descending Boston Center
Sat 11:44:03 AM 42.4206 -73.6944 335° Northwest 251 289 5,100 -1,967 Descending Boston Center
Sat 11:44:45 AM 42.4639 -73.7292 329° Northwest 249 287 3,700 -1,800 Descending Boston Center
Sat 11:45:03 AM 42.4742 -73.7378 328° Northwest 251 289 3,300 -800 Descending Boston Center
Sat 11:45:45 AM 42.5219 -73.7725 332° Northwest 247 284 2,900 -800 Descending Boston Center
Sat 11:46:03 AM 42.5383 -73.7814 338° Northwest 246 283 2,500 -1,333 Descending Boston Center

Login

Don't have an account? Register now (free) for customized features, flight alerts, and more!